Time;durP1;ratioP1;P1;durP2;ratioP2;P2;SDS_P1;SDS_P2;PMS_P1;PMS_P2;Temp;Humidity;BMP_temperature;BMP_pressure;BME280_temperature;BME280_humidity;BME280_pressure;Samples;Min_cycle;Max_cycle;Signal;HPM_P1;HPM_P2
2022/06/22 00:00:13;;;;;;;8.95;7.45;;;;;;;21.62;60.33;95100.06;5026984;28;20029;-79
2022/06/22 00:02:40;;;;;;;7.65;6.78;;;;;;;21.69;60.17;95110.78;5011557;28;20435;-79
2022/06/22 00:05:07;;;;;;;11.95;7.32;;;;;;;21.55;60.18;95110.38;5027143;28;20419;-79
2022/06/22 00:07:36;;;;;;;11.18;7.43;;;;;;;21.67;60.20;95112.94;5011401;28;20492;-79
2022/06/22 00:10:19;;;;;;;9.95;7.60;;;;;;;21.64;60.56;95108.00;5027708;28;20076;-79
2022/06/22 00:12:52;;;;;;;10.38;7.20;;;;;;;21.65;60.38;95115.13;5027466;28;20387;-79
2022/06/22 00:15:39;;;;;;;11.43;7.78;;;;;;;21.62;60.93;95121.88;5027797;28;20444;-79
2022/06/22 00:18:26;;;;;;;10.43;7.28;;;;;;;21.55;61.13;95122.09;5028120;28;20167;-79
2022/06/22 00:20:56;;;;;;;11.65;7.45;;;;;;;21.48;61.27;95113.28;5028669;28;20109;-78
2022/06/22 00:23:39;;;;;;;9.93;6.80;;;;;;;21.46;61.80;95110.81;5027198;28;20069;-79
2022/06/22 00:26:23;;;;;;;9.60;7.32;;;;;;;21.53;61.43;95104.31;5026928;28;20087;-79
2022/06/22 00:29:36;;;;;;;10.48;7.30;;;;;;;21.42;61.59;95108.84;5028507;28;20041;-80
2022/06/22 00:32:23;;;;;;;9.85;7.50;;;;;;;21.35;61.90;95114.47;5006138;28;20030;-79
2022/06/22 00:34:48;;;;;;;12.32;7.68;;;;;;;21.40;61.53;95111.00;5026322;28;20519;-79
2022/06/22 00:37:44;;;;;;;9.15;7.70;;;;;;;21.29;62.01;95104.59;5027454;28;20026;-79
2022/06/22 00:40:14;;;;;;;10.02;7.43;;;;;;;21.33;62.22;95101.09;5024930;28;20043;-79
2022/06/22 00:42:42;;;;;;;12.60;8.23;;;;;;;21.34;61.60;95102.78;5026848;28;20028;-79
2022/06/22 00:45:32;;;;;;;11.60;7.97;;;;;;;21.26;61.93;95107.81;5010503;28;20434;-79
2022/06/22 00:48:14;;;;;;;10.73;7.93;;;;;;;21.18;61.93;95111.81;5025655;28;20075;-79
2022/06/22 00:50:41;;;;;;;;;;;;;;;21.15;62.36;95112.31;5027345;28;20588;-79
2022/06/22 00:53:11;;;;;;;10.20;8.38;;;;;;;21.11;62.22;95114.72;5009605;28;19920;-79
2022/06/22 00:56:08;;;;;;;13.45;8.55;;;;;;;21.05;62.50;95119.31;5026474;28;20040;-79
2022/06/22 00:58:51;;;;;;;13.32;7.90;;;;;;;21.11;62.67;95118.28;5048984;28;20083;-79
2022/06/22 01:01:19;;;;;;;11.35;8.35;;;;;;;21.16;62.31;95119.41;5025921;28;20400;-79
2022/06/22 01:04:10;;;;;;;10.30;8.30;;;;;;;21.26;62.13;95113.28;5010295;28;20076;-79
2022/06/22 01:06:54;;;;;;;13.90;8.80;;;;;;;21.21;62.15;95124.94;5011976;28;20034;-80
2022/06/22 01:09:37;;;;;;;11.30;8.18;;;;;;;21.05;62.72;95111.13;5027873;28;20033;-80
2022/06/22 01:12:16;;;;;;;16.02;8.35;;;;;;;21.16;62.19;95103.91;5026582;28;20110;-80
2022/06/22 01:15:07;;;;;;;13.25;8.27;;;;;;;21.25;62.39;95104.25;5025264;28;20064;-79
2022/06/22 01:17:42;;;;;;;10.75;8.23;;;;;;;21.29;62.48;95113.59;5028040;28;20068;-80
2022/06/22 01:20:18;;;;;;;10.65;7.95;;;;;;;21.32;62.55;95102.19;5026091;28;20116;-80
2022/06/22 01:23:01;;;;;;;14.25;8.98;;;;;;;21.36;62.12;95097.06;5025553;28;20021;-79
2022/06/22 01:25:49;;;;;;;11.10;7.75;;;;;;;21.38;62.12;95085.91;5027576;28;20048;-79
2022/06/22 01:28:14;;;;;;;15.20;9.00;;;;;;;21.43;61.89;95089.50;5025390;28;20527;-80
2022/06/22 01:30:41;;;;;;;11.45;8.30;;;;;;;21.41;61.89;95090.84;4993069;28;20036;-79
2022/06/22 01:33:47;;;;;;;12.88;8.88;;;;;;;21.43;62.03;95094.13;5025953;28;20036;-80
2022/06/22 01:36:30;;;;;;;12.55;9.35;;;;;;;21.31;61.90;95084.16;5020193;28;20091;-80
2022/06/22 01:38:56;;;;;;;12.73;9.35;;;;;;;21.35;61.83;95088.03;5025999;28;20033;-79
2022/06/22 01:41:48;;;;;;;22.27;9.30;;;;;;;21.22;61.97;95085.69;5025209;28;20029;-79
2022/06/22 01:44:17;;;;;;;11.57;9.02;;;;;;;21.19;62.25;95078.84;5025493;28;20036;-79
2022/06/22 01:47:20;;;;;;;15.23;9.10;;;;;;;21.14;62.46;95076.06;5026006;28;20049;-79
2022/06/22 01:49:51;;;;;;;;;;;;;;;21.16;62.29;95081.25;5025260;28;20117;-79
2022/06/22 01:52:43;;;;;;;15.32;9.30;;;;;;;21.03;62.63;95075.09;5027159;28;19920;-78
2022/06/22 01:55:21;;;;;;;13.80;9.05;;;;;;;20.98;63.39;95085.94;5041832;28;20033;-79
2022/06/22 01:58:01;;;;;;;9.85;8.65;;;;;;;20.91;63.40;95079.81;5008987;28;20068;-78
2022/06/22 02:00:26;;;;;;;12.63;9.27;;;;;;;20.97;63.47;95084.28;5010556;28;20056;-79
2022/06/22 02:03:02;;;;;;;11.73;8.93;;;;;;;20.95;63.50;95081.81;5024664;28;20022;-79
2022/06/22 02:07:44;;;;;;;13.30;9.10;;;;;;;21.06;63.36;95081.94;5010138;28;20137;-79
2022/06/22 02:08:49;;;;;;;13.40;8.52;;;;;;;21.16;62.83;95075.78;5025855;28;20042;-79
2022/06/22 02:11:16;;;;;;;13.85;9.15;;;;;;;21.12;62.94;95067.28;5023921;28;20048;-79
2022/06/22 02:13:46;;;;;;;12.68;9.30;;;;;;;21.14;62.99;95065.16;5009275;28;20049;-79
2022/06/22 02:16:41;;;;;;;12.32;9.10;;;;;;;21.21;62.77;95060.34;5008692;28;20060;-79
2022/06/22 02:19:10;;;;;;;15.77;10.32;;;;;;;21.14;63.13;95061.59;5024372;28;20033;-78
2022/06/22 02:21:43;;;;;;;14.90;9.55;;;;;;;20.98;63.34;95061.41;5026571;28;20032;-78
2022/06/22 02:24:13;;;;;;;11.15;9.57;;;;;;;21.00;63.36;95064.69;5024083;28;20080;-78
2022/06/22 02:26:47;;;;;;;12.35;9.73;;;;;;;20.97;63.19;95065.22;5025602;28;20053;-79
2022/06/22 02:29:13;;;;;;;13.40;9.40;;;;;;;20.90;63.50;95072.69;5025944;28;20562;-79
2022/06/22 02:31:39;;;;;;;11.75;9.70;;;;;;;20.86;63.54;95072.41;5009084;28;20049;-79
2022/06/22 02:34:04;;;;;;;17.45;10.07;;;;;;;20.87;63.71;95074.88;5009075;28;20028;-78
2022/06/22 02:36:33;;;;;;;14.43;9.45;;;;;;;20.79;64.01;95069.84;5024961;28;20633;-78
2022/06/22 02:39:00;;;;;;;11.48;9.23;;;;;;;20.77;64.27;95063.81;5025709;28;20495;-80
2022/06/22 02:44:30;;;;;;;13.85;10.15;;;;;;;20.84;64.36;95069.09;5025563;28;20498;-79
2022/06/22 02:47:17;;;;;;;11.95;9.50;;;;;;;20.77;64.84;95069.25;5009780;28;20075;-80
2022/06/22 02:49:52;;;;;;;11.63;9.05;;;;;;;20.75;64.63;95072.25;5024357;28;20075;-79
2022/06/22 02:52:18;;;;;;;12.90;9.50;;;;;;;20.78;64.49;95076.34;5025097;28;20029;-79
2022/06/22 02:54:48;;;;;;;14.90;9.45;;;;;;;20.86;63.90;95080.56;5024279;28;20142;-80
2022/06/22 02:57:26;;;;;;;13.38;9.30;;;;;;;20.96;63.66;95082.63;5024989;28;20036;-80
2022/06/22 02:59:51;;;;;;;11.38;9.88;;;;;;;21.05;63.79;95083.84;5026421;28;20037;-80
2022/06/22 03:02:18;;;;;;;12.50;10.32;;;;;;;21.03;63.56;95074.25;5025466;28;20041;-80
2022/06/22 03:04:43;;;;;;;11.45;9.43;;;;;;;21.05;63.26;95083.84;5025049;28;20029;-79
2022/06/22 03:07:09;;;;;;;14.95;9.88;;;;;;;20.98;63.50;95080.47;5024182;28;20049;-79
2022/06/22 03:09:34;;;;;;;11.95;9.95;;;;;;;20.87;63.79;95069.41;5024750;28;20025;-79
2022/06/22 03:12:00;;;;;;;16.63;9.82;;;;;;;20.93;63.89;95074.94;5025743;28;20021;-79
2022/06/22 03:14:43;;;;;;;11.93;9.88;;;;;;;20.95;64.35;95073.63;5012159;28;20447;-80
2022/06/22 03:17:14;;;;;;;14.50;10.23;;;;;;;20.97;64.25;95074.19;5028169;28;20082;-80
2022/06/22 03:19:45;;;;;;;11.10;9.93;;;;;;;20.95;64.42;95075.53;4995156;28;20511;-79
2022/06/22 03:22:43;;;;;;;16.52;10.60;;;;;;;20.96;64.59;95072.56;5030179;28;20033;-80
2022/06/22 03:25:15;;;;;;;13.02;10.13;;;;;;;21.02;64.51;95070.72;5026752;28;20037;-78
2022/06/22 03:27:42;;;;;;;11.90;9.40;;;;;;;21.01;64.39;95068.25;5028586;28;20024;-78
2022/06/22 03:30:19;;;;;;;13.77;9.95;;;;;;;20.94;64.62;95071.97;4995405;28;20047;-79
2022/06/22 03:33:01;;;;;;;14.82;10.35;;;;;;;21.01;64.72;95071.00;5027716;28;20064;-78
2022/06/22 03:35:37;;;;;;;17.15;10.75;;;;;;;21.06;64.86;95071.03;5028332;28;20029;-78
2022/06/22 03:38:16;;;;;;;13.50;10.32;;;;;;;21.08;64.51;95067.00;5026993;28;20084;-78
2022/06/22 03:40:47;;;;;;;16.58;10.18;;;;;;;20.96;64.18;95074.44;5028021;28;20463;-78
2022/06/22 03:43:20;;;;;;;16.30;11.23;;;;;;;20.93;64.95;95067.59;5027752;28;20079;-79
2022/06/22 03:46:01;;;;;;;16.33;10.88;;;;;;;20.85;64.90;95065.28;5026912;28;20037;-78
2022/06/22 03:48:32;;;;;;;14.48;10.48;;;;;;;20.92;65.11;95074.16;5011427;28;20030;-79
2022/06/22 03:51:09;;;;;;;16.88;11.88;;;;;;;20.77;66.77;95084.78;5026550;28;20096;-79
2022/06/22 03:53:43;;;;;;;13.75;10.00;;;;;;;20.84;66.68;95091.72;5012147;28;20021;-79
2022/06/22 03:56:13;;;;;;;16.10;11.02;;;;;;;20.84;66.45;95088.16;5027664;28;20028;-79
2022/06/22 03:58:40;;;;;;;15.48;10.38;;;;;;;20.84;66.74;95102.63;5026784;28;20029;-80
2022/06/22 04:01:06;;;;;;;14.90;10.77;;;;;;;20.97;66.36;95106.09;5011385;28;20931;-79
2022/06/22 04:03:31;;;;;;;16.20;10.98;;;;;;;20.97;66.39;95101.44;5027906;28;20029;-79
2022/06/22 04:05:57;;;;;;;16.73;11.25;;;;;;;21.00;66.43;95094.69;5012463;28;20033;-79
2022/06/22 04:08:25;;;;;;;12.20;10.15;;;;;;;21.07;66.62;95097.25;5026450;28;20032;-79
2022/06/22 04:10:58;;;;;;;14.13;11.00;;;;;;;21.07;66.60;95089.84;5028663;28;20087;-79
2022/06/22 04:13:37;;;;;;;18.05;11.23;;;;;;;21.08;66.87;95080.63;5028207;28;20025;-79
2022/06/22 04:16:09;;;;;;;20.23;12.07;;;;;;;21.26;65.57;95075.09;5026757;28;20550;-79
2022/06/22 04:19:00;;;;;;;14.27;10.75;;;;;;;21.29;65.15;95067.25;5010306;28;20420;-79
2022/06/22 04:21:29;;;;;;;13.98;10.70;;;;;;;21.43;64.91;95083.19;5027258;28;20048;-79
2022/06/22 04:23:56;;;;;;;13.23;10.55;;;;;;;21.46;64.95;95080.81;5010423;28;20042;-79
2022/06/22 04:26:26;;;;;;;17.55;11.18;;;;;;;21.52;64.79;95078.97;4993552;28;20079;-79
2022/06/22 04:28:55;;;;;;;13.52;10.35;;;;;;;21.69;64.59;95088.94;5026484;28;20034;-80
2022/06/22 04:31:24;;;;;;;15.55;10.63;;;;;;;21.77;64.37;95084.94;5010913;28;20033;-79
2022/06/22 04:33:59;;;;;;;17.35;10.57;;;;;;;21.81;64.25;95091.56;4993286;28;20026;-79
2022/06/22 04:36:31;;;;;;;15.57;10.50;;;;;;;21.95;63.71;95094.72;5027322;28;20033;-80
2022/06/22 04:39:27;;;;;;;17.40;10.48;;;;;;;21.95;64.04;95094.72;5025551;28;20036;-79
2022/06/22 04:41:53;;;;;;;16.00;10.38;;;;;;;22.03;64.37;95094.25;5058419;28;20067;-79
2022/06/22 04:44:22;;;;;;;11.68;9.20;;;;;;;22.04;64.76;95095.88;5009994;28;20030;-79
2022/06/22 04:46:49;;;;;;;15.77;9.73;;;;;;;22.35;63.03;95093.44;5009355;28;20432;-79
2022/06/22 04:49:41;;;;;;;14.05;10.30;;;;;;;22.40;62.97;95109.03;5026586;28;20489;-79
2022/06/22 04:52:15;;;;;;;15.13;10.00;;;;;;;22.31;63.56;95108.69;5009272;28;20030;-79
2022/06/22 04:54:40;;;;;;;12.63;9.55;;;;;;;22.44;63.23;95109.34;5027712;28;20496;-80
2022/06/22 04:57:11;;;;;;;13.48;9.73;;;;;;;22.48;63.23;95107.75;5026122;28;20078;-79
2022/06/22 04:59:37;;;;;;;16.88;10.13;;;;;;;22.66;62.83;95103.81;5025774;28;20586;-79
2022/06/22 05:02:03;;;;;;;14.50;9.93;;;;;;;22.71;61.88;95111.22;5026082;28;20121;-79
2022/06/22 05:04:36;;;;;;;10.63;9.52;;;;;;;22.80;62.04;95119.75;5008951;28;20029;-79
2022/06/22 05:07:20;;;;;;;16.38;9.60;;;;;;;22.67;62.59;95107.34;5026667;28;20025;-79
2022/06/22 05:09:59;;;;;;;13.32;10.13;;;;;;;22.82;61.91;95112.09;5027463;28;20104;-80
2022/06/22 05:12:25;;;;;;;20.88;9.68;;;;;;;22.83;62.10;95113.75;5025842;28;20033;-79
2022/06/22 05:14:52;;;;;;;13.02;9.32;;;;;;;22.92;61.98;95109.47;5009604;28;20036;-79
2022/06/22 05:17:29;;;;;;;13.30;9.27;;;;;;;22.99;61.96;95119.34;5025512;28;20487;-80
2022/06/22 05:19:59;;;;;;;11.85;9.63;;;;;;;23.01;62.39;95117.97;5026667;28;20041;-80
2022/06/22 05:22:24;;;;;;;11.95;8.85;;;;;;;23.24;61.49;95115.09;5025375;28;20515;-81
2022/06/22 05:25:01;;;;;;;13.57;9.13;;;;;;;23.42;61.38;95105.63;5026403;28;20030;-79
2022/06/22 05:28:03;;;;;;;14.43;9.00;;;;;;;23.36;60.83;95118.41;4993329;28;20238;-79
2022/06/22 05:30:36;;;;;;;12.85;8.75;;;;;;;23.33;60.23;95102.53;5023229;28;20428;-79
2022/06/22 05:33:04;;;;;;;14.63;8.27;;;;;;;23.62;59.99;95104.88;5010498;28;20030;-80
2022/06/22 05:35:35;;;;;;;12.13;8.82;;;;;;;23.63;59.86;95100.22;5024177;28;20198;-79
2022/06/22 05:38:02;;;;;;;12.55;8.32;;;;;;;23.69;59.54;95107.38;5009644;28;20026;-80
2022/06/22 05:40:29;;;;;;;18.02;8.38;;;;;;;23.70;59.54;95114.47;5009267;28;20025;-80
2022/06/22 05:42:55;;;;;;;13.20;9.13;;;;;;;23.81;59.53;95123.56;5008605;28;20514;-80
2022/06/22 05:45:24;;;;;;;11.32;8.85;;;;;;;23.74;60.08;95134.75;5025612;28;20075;-80
2022/06/22 05:47:49;;;;;;;19.05;9.27;;;;;;;23.78;59.96;95126.84;5008276;28;20574;-80
2022/06/22 05:50:34;;;;;;;14.43;9.25;;;;;;;24.01;60.00;95128.25;5027075;28;20029;-80
2022/06/22 05:53:03;;;;;;;10.38;8.90;;;;;;;23.99;59.58;95124.16;5008877;28;20043;-80
2022/06/22 05:55:37;;;;;;;12.27;8.45;;;;;;;24.02;59.10;95132.63;5009365;28;20183;-80
2022/06/22 05:58:21;;;;;;;11.95;8.73;;;;;;;24.22;58.76;95122.84;5025061;28;20500;-81
2022/06/22 06:00:50;;;;;;;11.38;8.48;;;;;;;24.23;58.70;95129.16;5026172;28;20029;-80
2022/06/22 06:03:19;;;;;;;8.77;7.63;;;;;;;24.36;58.51;95122.31;5025595;28;20033;-80
2022/06/22 06:05:48;;;;;;;11.60;8.30;;;;;;;24.41;58.39;95119.56;5024514;28;20273;-80
2022/06/22 06:08:19;;;;;;;9.65;8.65;;;;;;;24.25;58.97;95118.72;5025304;28;20112;-80
2022/06/22 06:10:44;;;;;;;10.25;8.30;;;;;;;24.08;58.96;95120.59;5024941;28;20061;-80
2022/06/22 06:13:15;;;;;;;10.75;8.30;;;;;;;24.20;57.58;95128.59;5007999;28;20030;-79
2022/06/22 06:15:41;;;;;;;13.07;8.90;;;;;;;23.93;58.70;95126.88;5026304;28;20049;-79
2022/06/22 06:18:07;;;;;;;12.60;9.00;;;;;;;23.95;58.83;95119.22;5007645;28;20315;-79
2022/06/22 06:20:41;;;;;;;13.05;8.82;;;;;;;24.15;58.08;95114.88;5025522;28;20025;-79
2022/06/22 06:23:27;;;;;;;13.95;8.20;;;;;;;24.19;57.07;95110.53;5008128;28;20511;-80
2022/06/22 06:28:59;;;;;;;12.73;7.55;;;;;;;24.44;56.03;95124.50;5026591;28;20134;-81
2022/06/22 06:31:47;;;;;;;14.52;8.50;;;;;;;24.43;56.13;95118.22;5025173;28;20033;-80
2022/06/22 06:34:18;;;;;;;10.77;7.97;;;;;;;24.48;56.60;95125.59;5023033;28;20052;-80
2022/06/22 06:37:10;;;;;;;10.63;8.23;;;;;;;24.44;56.12;95130.81;5008803;28;20083;-79
2022/06/22 06:39:37;;;;;;;8.50;7.63;;;;;;;24.48;56.22;95119.28;5025315;28;20482;-79
2022/06/22 06:42:08;;;;;;;12.55;8.77;;;;;;;24.56;55.98;95114.09;5008881;28;20044;-80
2022/06/22 06:44:40;;;;;;;11.23;8.65;;;;;;;24.67;54.92;95116.81;5007871;28;20033;-80
2022/06/22 06:47:13;;;;;;;11.02;8.60;;;;;;;24.76;55.18;95108.88;5011051;28;20021;-79
2022/06/22 06:49:47;;;;;;;12.35;7.97;;;;;;;24.88;55.30;95108.56;5012128;28;20076;-80
2022/06/22 06:52:32;;;;;;;14.75;8.10;;;;;;;24.79;55.74;95111.91;5029682;28;20409;-81
2022/06/22 06:55:12;;;;;;;12.15;8.65;;;;;;;24.86;55.67;95103.38;5012731;28;20040;-83
2022/06/22 06:57:38;;;;;;;8.60;7.65;;;;;;;24.64;56.38;95107.25;5028474;28;20455;-80
2022/06/22 07:00:09;;;;;;;11.75;8.57;;;;;;;24.48;57.05;95097.38;5012246;28;20025;-80
2022/06/22 07:02:39;;;;;;;10.57;8.53;;;;;;;24.31;57.92;95096.53;5027939;28;20061;-79
2022/06/22 07:05:12;;;;;;;10.13;8.00;;;;;;;24.36;57.81;95094.91;4995738;28;20080;-81
2022/06/22 07:07:43;;;;;;;17.40;9.10;;;;;;;24.57;57.17;95095.72;5028300;28;20033;-81
2022/06/22 07:10:52;;;;;;;15.50;8.85;;;;;;;24.80;56.55;95093.50;5027511;28;20032;-80
2022/06/22 07:13:27;;;;;;;11.98;8.55;;;;;;;24.55;58.02;95092.44;4995709;28;20053;-81
2022/06/22 07:16:07;;;;;;;13.15;8.48;;;;;;;24.46;57.96;95083.94;5022844;28;20069;-80
2022/06/22 07:18:35;;;;;;;11.27;8.38;;;;;;;24.38;58.28;95084.47;5011812;28;20544;-81
2022/06/22 07:21:11;;;;;;;10.50;8.63;;;;;;;24.55;58.20;95093.25;5012049;28;20025;-81
2022/06/22 07:23:40;;;;;;;10.48;9.15;;;;;;;24.73;57.54;95090.25;5027380;28;20021;-79
2022/06/22 07:26:23;;;;;;;10.35;8.43;;;;;;;24.87;57.94;95087.75;5012401;28;20117;-82
2022/06/22 07:29:05;;;;;;;11.50;9.15;;;;;;;24.72;57.68;95081.19;5012265;28;20025;-82
2022/06/22 07:31:38;;;;;;;15.75;10.07;;;;;;;24.67;57.83;95089.41;5012623;28;20392;-81
2022/06/22 07:34:04;;;;;;;14.25;9.95;;;;;;;24.80;57.74;95077.88;5012108;28;20208;-80
2022/06/22 07:36:42;;;;;;;11.70;9.48;;;;;;;24.93;57.12;95084.75;5026837;28;20025;-81
2022/06/22 07:39:16;;;;;;;16.88;9.32;;;;;;;24.98;57.03;95078.44;5012020;28;20056;-80
2022/06/22 07:41:41;;;;;;;11.73;9.95;;;;;;;24.96;56.82;95077.88;5024742;28;20509;-80
2022/06/22 07:44:12;;;;;;;13.95;9.80;;;;;;;25.14;55.82;95086.59;5023101;28;20045;-79
2022/06/22 07:46:37;;;;;;;12.60;9.93;;;;;;;25.20;56.41;95085.50;4993755;28;20049;-80
2022/06/22 07:49:13;;;;;;;11.60;9.80;;;;;;;25.44;55.56;95090.34;5015614;28;20546;-80
2022/06/22 07:51:41;;;;;;;14.52;10.40;;;;;;;25.35;56.25;95083.78;5005023;28;20032;-80
2022/06/22 07:54:21;;;;;;;17.17;11.25;;;;;;;25.43;55.62;95088.72;4986423;28;20218;-80
2022/06/22 07:57:28;;;;;;;14.32;11.82;;;;;;;25.26;55.99;95100.03;5022496;28;20030;-80
2022/06/22 08:00:11;;;;;;;18.15;11.52;;;;;;;25.47;55.91;95091.72;5019562;28;20092;-79
2022/06/22 08:02:51;;;;;;;21.17;10.88;;;;;;;25.49;54.82;95098.56;4985341;28;20053;-81
2022/06/22 08:05:19;;;;;;;15.63;11.52;;;;;;;25.26;54.99;95105.53;5020673;28;20120;-80
2022/06/22 08:07:50;;;;;;;14.50;12.30;;;;;;;25.26;55.72;95102.78;5021695;28;20487;-80
2022/06/22 08:10:20;;;;;;;16.23;10.88;;;;;;;25.25;55.38;95095.63;5018456;28;20339;-81
2022/06/22 08:13:02;;;;;;;14.45;11.95;;;;;;;25.46;55.09;95098.28;5007422;28;20132;-80
2022/06/22 08:15:28;;;;;;;21.55;12.05;;;;;;;25.42;55.82;95103.53;5006763;28;20100;-81
2022/06/22 08:17:55;;;;;;;14.43;11.55;;;;;;;25.48;55.15;95104.31;4991153;28;20072;-80
2022/06/22 08:20:31;;;;;;;17.17;12.73;;;;;;;25.60;55.32;95106.75;5004110;28;20489;-80
2022/06/22 08:22:58;;;;;;;17.67;12.63;;;;;;;25.59;54.41;95105.09;5019874;28;20029;-80
2022/06/22 08:25:23;;;;;;;14.05;11.38;;;;;;;25.75;54.60;95094.91;5019799;28;20025;-81
2022/06/22 08:27:49;;;;;;;17.13;11.88;;;;;;;25.89;54.84;95093.16;5005395;28;20026;-80
2022/06/22 08:30:14;;;;;;;16.20;11.65;;;;;;;25.95;53.98;95096.72;5021560;28;20025;-81
2022/06/22 08:32:59;;;;;;;14.80;11.20;;;;;;;25.89;53.30;95087.69;5020237;28;20107;-80
2022/06/22 08:35:27;;;;;;;14.43;11.63;;;;;;;25.90;54.21;95078.34;5006534;28;20829;-80
2022/06/22 08:38:08;;;;;;;15.07;11.95;;;;;;;25.83;54.19;95077.81;4988876;28;20143;-81
2022/06/22 08:40:39;;;;;;;14.32;11.32;;;;;;;25.84;53.21;95081.41;5017324;28;20025;-81
2022/06/22 08:43:13;;;;;;;16.58;11.52;;;;;;;26.15;52.79;95086.69;5020824;28;20041;-80
2022/06/22 08:45:54;;;;;;;21.27;12.50;;;;;;;26.34;51.46;95084.13;5019469;28;20029;-80
2022/06/22 08:48:51;;;;;;;25.02;12.52;;;;;;;26.19;52.09;95082.28;5023749;28;20036;-80
2022/06/22 08:51:50;;;;;;;17.88;12.25;;;;;;;26.05;52.03;95082.09;5023308;28;20476;-80
2022/06/22 08:54:26;;;;;;;17.38;11.63;;;;;;;26.00;51.72;95082.97;5018406;28;20083;-80
2022/06/22 08:57:02;;;;;;;14.32;11.25;;;;;;;26.18;51.21;95083.41;5023021;28;20103;-81
2022/06/22 08:59:59;;;;;;;14.48;11.25;;;;;;;26.28;50.79;95075.06;5033980;28;20527;-81
2022/06/22 09:02:44;;;;;;;16.52;11.27;;;;;;;26.08;51.96;95065.03;5018418;28;20065;-81
2022/06/22 09:05:10;;;;;;;19.00;11.82;;;;;;;26.03;51.09;95062.34;5022058;28;20053;-80
2022/06/22 09:08:09;;;;;;;19.45;11.82;;;;;;;25.94;51.49;95036.56;5020266;28;20060;-81
2022/06/22 09:11:07;;;;;;;19.40;11.52;;;;;;;25.86;50.99;95040.75;5017671;28;20040;-80
2022/06/22 09:14:07;;;;;;;14.02;10.50;;;;;;;26.02;51.56;95056.00;5021761;28;20112;-81
2022/06/22 09:16:54;;;;;;;16.20;11.98;;;;;;;26.16;50.80;95055.38;5021000;28;20045;-82
2022/06/22 09:19:26;;;;;;;18.15;10.75;;;;;;;26.36;49.96;95048.91;5019946;28;20124;-81
2022/06/22 09:22:01;;;;;;;13.40;10.18;;;;;;;26.26;49.35;95047.03;5020132;28;20021;-80
2022/06/22 09:25:02;;;;;;;18.25;9.93;;;;;;;26.33;49.14;95030.25;5020825;28;20105;-79
2022/06/22 09:27:43;;;;;;;12.23;9.85;;;;;;;26.28;51.12;95042.06;4988186;28;20098;-81
2022/06/22 09:30:14;;;;;;;13.30;10.10;;;;;;;26.25;50.21;95042.66;5018543;28;20393;-82
2022/06/22 09:32:55;;;;;;;16.50;11.03;;;;;;;26.44;49.26;95019.97;5021909;28;20068;-80
2022/06/22 09:35:23;;;;;;;15.18;11.20;;;;;;;26.50;51.09;95023.50;5021955;28;20084;-80
2022/06/22 09:38:17;;;;;;;16.88;10.93;;;;;;;26.46;49.61;95015.00;5022344;28;20049;-84
2022/06/22 09:40:47;;;;;;;18.02;10.65;;;;;;;26.20;49.45;95017.16;5022234;28;20048;-81
2022/06/22 09:43:15;;;;;;;11.88;10.10;;;;;;;26.18;49.40;95028.44;5021340;28;20045;-80
2022/06/22 09:45:49;;;;;;;15.55;10.57;;;;;;;26.33;49.02;95023.91;5022592;28;20025;-80
2022/06/22 09:48:18;;;;;;;15.18;10.43;;;;;;;25.97;50.35;95030.50;5005698;28;20017;-82
2022/06/22 09:51:03;;;;;;;15.63;10.25;;;;;;;25.89;50.29;95034.69;5019810;28;20056;-80
2022/06/22 09:53:35;;;;;;;17.02;10.65;;;;;;;25.77;51.98;95035.84;5002838;28;20034;-81
2022/06/22 09:56:25;;;;;;;13.60;10.57;;;;;;;25.74;52.48;95041.91;5019749;28;20075;-80
2022/06/22 09:59:00;;;;;;;13.05;10.75;;;;;;;25.78;52.26;95036.66;5019752;28;20025;-80
2022/06/22 10:02:11;;;;;;;18.60;11.18;;;;;;;25.96;52.90;95057.16;5022186;28;20033;-81
2022/06/22 10:04:44;;;;;;;16.35;11.05;;;;;;;26.01;53.11;95054.38;5017017;28;20080;-79
2022/06/22 10:07:28;;;;;;;20.17;11.27;;;;;;;25.99;52.00;95056.56;5017355;28;20025;-80
2022/06/22 10:10:14;;;;;;;18.95;10.13;;;;;;;26.09;51.76;95061.19;5017375;28;20583;-80
2022/06/22 10:12:53;;;;;;;15.38;9.25;;;;;;;26.35;51.48;95044.53;5004702;28;20045;-82
2022/06/22 10:15:37;;;;;;;14.48;9.57;;;;;;;26.39;50.68;95053.03;5037394;28;20095;-81
2022/06/22 10:18:14;;;;;;;13.40;9.70;;;;;;;26.24;50.17;95057.50;5019745;28;20033;-82
2022/06/22 10:21:10;;;;;;;23.13;10.30;;;;;;;26.16;50.30;95047.13;5013927;28;20068;-82
2022/06/22 10:24:07;;;;;;;18.48;10.90;;;;;;;26.24;50.87;95052.00;5020254;28;20029;-80
2022/06/22 10:26:58;;;;;;;14.25;9.63;;;;;;;26.09;50.09;95052.94;5019867;28;20030;-81
2022/06/22 10:29:48;;;;;;;17.00;9.55;;;;;;;26.22;49.96;95040.47;5020247;28;20045;-81
2022/06/22 10:32:33;;;;;;;15.02;9.30;;;;;;;26.06;50.30;95056.25;5023449;28;20044;-83
2022/06/22 10:35:03;;;;;;;16.52;8.90;;;;;;;25.91;49.36;95040.69;5018441;28;20598;-81
2022/06/22 10:37:35;;;;;;;13.50;10.10;;;;;;;26.08;49.67;95043.06;5003413;28;20029;-81
2022/06/22 10:46:22;;;;;;;12.45;9.65;;;;;;;26.46;50.12;95052.66;5020837;28;20549;-81
2022/06/22 10:48:54;;;;;;;18.55;8.90;;;;;;;26.43;50.85;95043.09;5019837;28;20545;-82
2022/06/22 10:51:46;;;;;;;12.73;10.10;;;;;;;26.56;50.16;95047.09;5016539;28;20034;-81
2022/06/22 10:54:14;;;;;;;14.95;9.27;;;;;;;26.50;50.53;95042.75;5015988;28;20039;-80
2022/06/22 10:56:58;;;;;;;17.08;9.98;;;;;;;26.47;49.76;95041.38;5020801;28;20530;-81
2022/06/22 10:59:46;;;;;;;14.07;9.73;;;;;;;26.70;49.94;95047.22;5018152;28;20527;-80
2022/06/22 11:02:12;;;;;;;12.27;9.02;;;;;;;26.82;49.47;95032.25;5018446;28;20030;-82
2022/06/22 11:05:09;;;;;;;17.58;9.63;;;;;;;26.73;49.63;95038.41;5020391;28;20021;-80
2022/06/22 11:07:53;;;;;;;15.18;9.88;;;;;;;26.76;49.69;95032.31;5019174;28;20021;-80
2022/06/22 11:10:56;;;;;;;18.02;8.30;;;;;;;26.96;48.35;95033.22;5013876;28;20191;-82
2022/06/22 11:13:36;;;;;;;13.60;8.00;;;;;;;26.78;46.87;95038.34;5018935;28;20044;-81
2022/06/22 11:16:08;;;;;;;18.45;9.63;;;;;;;26.90;49.03;95051.72;5019986;28;20125;-81
2022/06/22 11:18:45;;;;;;;18.30;9.27;;;;;;;26.88;47.47;95053.09;5016106;28;20041;-81
2022/06/22 11:21:28;;;;;;;15.50;8.90;;;;;;;26.78;48.05;95051.28;5003658;28;20491;-81
2022/06/22 11:24:23;;;;;;;15.68;8.98;;;;;;;27.02;48.22;95045.81;5019211;28;20032;-80
2022/06/22 11:30:58;;;;;;;16.15;9.32;;;;;;;26.71;47.97;95039.81;4986352;28;20508;-80
2022/06/22 11:33:33;;;;;;;10.68;8.82;;;;;;;26.42;48.75;95044.19;5018506;28;20036;-80
2022/06/22 11:36:26;;;;;;;11.23;8.93;;;;;;;26.47;47.71;95046.88;5018681;28;20480;-79
2022/06/22 11:38:57;;;;;;;18.05;9.85;;;;;;;26.53;48.39;95059.50;5021586;28;20409;-79
2022/06/22 11:41:44;;;;;;;18.88;9.40;;;;;;;26.67;48.39;95058.81;5024620;28;20051;-81
2022/06/22 11:44:34;;;;;;;12.52;8.93;;;;;;;26.80;48.22;95057.31;5020828;28;20139;-81
2022/06/22 11:47:05;;;;;;;16.60;9.43;;;;;;;26.91;48.47;95052.53;5021891;28;20024;-79
2022/06/22 11:49:37;;;;;;;12.97;9.33;;;;;;;26.91;47.71;95050.59;5005827;28;20032;-80
2022/06/22 11:52:26;;;;;;;13.30;9.80;;;;;;;26.88;47.91;95044.84;5023081;28;20052;-80
2022/06/22 11:55:09;;;;;;;12.50;9.85;;;;;;;26.98;48.08;95035.66;5024555;28;20094;-79
2022/06/22 11:57:47;;;;;;;12.02;10.10;;;;;;;26.96;48.05;95040.63;5023442;28;20025;-79
2022/06/22 12:00:31;;;;;;;15.07;10.13;;;;;;;26.96;49.30;95044.22;5023177;28;20400;-81
2022/06/22 12:03:25;;;;;;;14.35;9.93;;;;;;;27.08;48.72;95056.78;5024111;28;20084;-79
2022/06/22 12:06:13;;;;;;;13.05;9.77;;;;;;;27.03;48.70;95053.00;5022285;28;20025;-80
2022/06/22 12:08:51;;;;;;;14.52;10.02;;;;;;;27.06;48.27;95051.56;5020927;28;20025;-79
2022/06/22 12:11:50;;;;;;;11.32;9.82;;;;;;;26.82;48.25;95044.09;5021242;28;20040;-80
2022/06/22 12:17:25;;;;;;;16.23;10.80;;;;;;;26.95;48.82;95042.59;5023506;28;20075;-80
2022/06/22 12:20:09;;;;;;;15.32;10.43;;;;;;;26.71;49.75;95043.38;5001498;28;20105;-81
2022/06/22 12:22:43;;;;;;;13.80;10.52;;;;;;;26.98;49.05;95044.75;5022080;28;20040;-80
2022/06/22 12:25:34;;;;;;;17.40;10.00;;;;;;;27.23;49.13;95047.53;5022810;28;20029;-81
2022/06/22 12:28:09;;;;;;;15.15;9.60;;;;;;;27.32;48.87;95048.53;5020949;28;20510;-81